sensor_id;sensor_type;location;lat;lon;timestamp;P1;durP1;ratioP1;P2;durP2;ratioP2
75165;SDS011;63747;48.042;10.088;2024-01-30T00:01:02;4.03;;;3.10;;
75165;SDS011;63747;48.042;10.088;2024-01-30T00:04:03;5.23;;;3.20;;
75165;SDS011;63747;48.042;10.088;2024-01-30T00:07:04;5.03;;;3.50;;
75165;SDS011;63747;48.042;10.088;2024-01-30T00:10:05;5.10;;;3.67;;
75165;SDS011;63747;48.042;10.088;2024-01-30T00:13:06;5.55;;;3.20;;
75165;SDS011;63747;48.042;10.088;2024-01-30T00:16:07;4.20;;;3.00;;
75165;SDS011;63747;48.042;10.088;2024-01-30T00:19:09;4.40;;;3.10;;
75165;SDS011;63747;48.042;10.088;2024-01-30T00:22:09;4.33;;;3.03;;
75165;SDS011;63747;48.042;10.088;2024-01-30T00:25:10;6.67;;;3.27;;
75165;SDS011;63747;48.042;10.088;2024-01-30T00:28:11;5.07;;;3.10;;
75165;SDS011;63747;48.042;10.088;2024-01-30T00:31:11;4.20;;;2.97;;
75165;SDS011;63747;48.042;10.088;2024-01-30T00:34:12;3.83;;;2.83;;
75165;SDS011;63747;48.042;10.088;2024-01-30T00:37:13;3.30;;;2.60;;
75165;SDS011;63747;48.042;10.088;2024-01-30T00:40:13;4.10;;;2.73;;
75165;SDS011;63747;48.042;10.088;2024-01-30T00:43:15;4.60;;;2.58;;
75165;SDS011;63747;48.042;10.088;2024-01-30T00:46:16;5.33;;;2.73;;
75165;SDS011;63747;48.042;10.088;2024-01-30T00:49:17;3.50;;;2.20;;
75165;SDS011;63747;48.042;10.088;2024-01-30T00:52:17;4.10;;;2.37;;
75165;SDS011;63747;48.042;10.088;2024-01-30T00:55:18;3.47;;;2.83;;
75165;SDS011;63747;48.042;10.088;2024-01-30T00:58:19;3.80;;;2.80;;
75165;SDS011;63747;48.042;10.088;2024-01-30T01:01:20;5.17;;;2.87;;
75165;SDS011;63747;48.042;10.088;2024-01-30T01:04:20;3.37;;;2.40;;
75165;SDS011;63747;48.042;10.088;2024-01-30T01:07:21;5.03;;;2.90;;
75165;SDS011;63747;48.042;10.088;2024-01-30T01:10:22;4.83;;;2.77;;
75165;SDS011;63747;48.042;10.088;2024-01-30T01:13:22;3.50;;;2.53;;
75165;SDS011;63747;48.042;10.088;2024-01-30T01:16:23;4.00;;;2.70;;
75165;SDS011;63747;48.042;10.088;2024-01-30T01:19:24;4.03;;;2.60;;
75165;SDS011;63747;48.042;10.088;2024-01-30T01:22:24;4.20;;;2.67;;
75165;SDS011;63747;48.042;10.088;2024-01-30T01:25:25;4.87;;;2.73;;
75165;SDS011;63747;48.042;10.088;2024-01-30T01:28:26;4.47;;;2.47;;
75165;SDS011;63747;48.042;10.088;2024-01-30T01:31:27;4.83;;;2.80;;
75165;SDS011;63747;48.042;10.088;2024-01-30T01:34:29;4.40;;;3.00;;
75165;SDS011;63747;48.042;10.088;2024-01-30T01:37:30;4.67;;;2.97;;
75165;SDS011;63747;48.042;10.088;2024-01-30T01:40:31;4.80;;;3.08;;
75165;SDS011;63747;48.042;10.088;2024-01-30T01:43:32;4.80;;;2.73;;
75165;SDS011;63747;48.042;10.088;2024-01-30T01:46:33;4.07;;;2.77;;
75165;SDS011;63747;48.042;10.088;2024-01-30T01:49:34;4.10;;;2.95;;
75165;SDS011;63747;48.042;10.088;2024-01-30T01:52:35;6.27;;;2.97;;
75165;SDS011;63747;48.042;10.088;2024-01-30T01:55:36;6.57;;;3.50;;
75165;SDS011;63747;48.042;10.088;2024-01-30T01:58:37;6.53;;;3.38;;
75165;SDS011;63747;48.042;10.088;2024-01-30T02:01:38;4.50;;;3.13;;
75165;SDS011;63747;48.042;10.088;2024-01-30T02:04:43;4.35;;;2.90;;
75165;SDS011;63747;48.042;10.088;2024-01-30T02:07:44;6.15;;;3.33;;
75165;SDS011;63747;48.042;10.088;2024-01-30T02:10:45;7.45;;;3.58;;
75165;SDS011;63747;48.042;10.088;2024-01-30T02:13:46;5.67;;;3.10;;
75165;SDS011;63747;48.042;10.088;2024-01-30T02:16:47;6.05;;;3.33;;
75165;SDS011;63747;48.042;10.088;2024-01-30T02:19:47;6.17;;;3.23;;
75165;SDS011;63747;48.042;10.088;2024-01-30T02:22:48;6.30;;;3.50;;
75165;SDS011;63747;48.042;10.088;2024-01-30T02:25:49;5.60;;;2.95;;
75165;SDS011;63747;48.042;10.088;2024-01-30T02:28:52;4.10;;;2.88;;
75165;SDS011;63747;48.042;10.088;2024-01-30T02:31:53;8.40;;;3.33;;
75165;SDS011;63747;48.042;10.088;2024-01-30T02:34:54;4.93;;;2.70;;
75165;SDS011;63747;48.042;10.088;2024-01-30T02:37:54;4.63;;;2.70;;
75165;SDS011;63747;48.042;10.088;2024-01-30T02:40:55;5.57;;;2.90;;
75165;SDS011;63747;48.042;10.088;2024-01-30T02:43:59;3.70;;;2.55;;
75165;SDS011;63747;48.042;10.088;2024-01-30T02:47:00;3.60;;;2.43;;
75165;SDS011;63747;48.042;10.088;2024-01-30T02:50:00;3.97;;;2.47;;
75165;SDS011;63747;48.042;10.088;2024-01-30T02:53:01;3.20;;;2.50;;
75165;SDS011;63747;48.042;10.088;2024-01-30T02:56:02;5.00;;;2.47;;
75165;SDS011;63747;48.042;10.088;2024-01-30T02:59:03;4.30;;;2.50;;
75165;SDS011;63747;48.042;10.088;2024-01-30T03:02:04;4.17;;;2.17;;
75165;SDS011;63747;48.042;10.088;2024-01-30T03:05:05;3.83;;;2.07;;
75165;SDS011;63747;48.042;10.088;2024-01-30T03:08:07;3.47;;;1.85;;
75165;SDS011;63747;48.042;10.088;2024-01-30T03:11:08;4.00;;;2.20;;
75165;SDS011;63747;48.042;10.088;2024-01-30T03:14:08;3.03;;;1.97;;
75165;SDS011;63747;48.042;10.088;2024-01-30T03:17:11;2.85;;;2.00;;
75165;SDS011;63747;48.042;10.088;2024-01-30T03:20:11;3.00;;;2.10;;
75165;SDS011;63747;48.042;10.088;2024-01-30T03:23:12;3.47;;;2.17;;
75165;SDS011;63747;48.042;10.088;2024-01-30T03:26:13;2.87;;;1.90;;
75165;SDS011;63747;48.042;10.088;2024-01-30T03:29:15;4.32;;;2.20;;
75165;SDS011;63747;48.042;10.088;2024-01-30T03:32:16;2.70;;;1.87;;
75165;SDS011;63747;48.042;10.088;2024-01-30T03:35:16;3.40;;;2.13;;
75165;SDS011;63747;48.042;10.088;2024-01-30T03:38:19;3.50;;;2.20;;
75165;SDS011;63747;48.042;10.088;2024-01-30T03:41:19;3.73;;;2.03;;
75165;SDS011;63747;48.042;10.088;2024-01-30T03:44:20;3.50;;;2.27;;
75165;SDS011;63747;48.042;10.088;2024-01-30T03:47:21;3.63;;;2.20;;
75165;SDS011;63747;48.042;10.088;2024-01-30T03:50:22;4.55;;;2.75;;
75165;SDS011;63747;48.042;10.088;2024-01-30T03:53:23;4.70;;;2.03;;
75165;SDS011;63747;48.042;10.088;2024-01-30T03:56:24;3.73;;;2.30;;
75165;SDS011;63747;48.042;10.088;2024-01-30T04:02:26;4.28;;;2.83;;
75165;SDS011;63747;48.042;10.088;2024-01-30T04:05:26;3.67;;;2.57;;
75165;SDS011;63747;48.042;10.088;2024-01-30T04:08:27;5.70;;;2.80;;
75165;SDS011;63747;48.042;10.088;2024-01-30T04:11:28;4.80;;;2.50;;
75165;SDS011;63747;48.042;10.088;2024-01-30T04:14:28;3.80;;;2.67;;
75165;SDS011;63747;48.042;10.088;2024-01-30T04:17:29;6.83;;;3.00;;
75165;SDS011;63747;48.042;10.088;2024-01-30T04:20:30;4.67;;;3.07;;
75165;SDS011;63747;48.042;10.088;2024-01-30T04:23:31;3.67;;;2.80;;
75165;SDS011;63747;48.042;10.088;2024-01-30T04:26:31;5.10;;;3.13;;
75165;SDS011;63747;48.042;10.088;2024-01-30T04:29:32;5.97;;;3.00;;
75165;SDS011;63747;48.042;10.088;2024-01-30T04:32:33;3.87;;;2.50;;
75165;SDS011;63747;48.042;10.088;2024-01-30T04:35:34;4.80;;;2.57;;
75165;SDS011;63747;48.042;10.088;2024-01-30T04:38:34;5.83;;;3.17;;
75165;SDS011;63747;48.042;10.088;2024-01-30T04:41:35;4.27;;;3.00;;
75165;SDS011;63747;48.042;10.088;2024-01-30T04:44:36;5.23;;;3.20;;
75165;SDS011;63747;48.042;10.088;2024-01-30T04:47:36;5.87;;;3.30;;
75165;SDS011;63747;48.042;10.088;2024-01-30T04:50:37;4.40;;;3.27;;
75165;SDS011;63747;48.042;10.088;2024-01-30T04:53:38;4.47;;;2.70;;
75165;SDS011;63747;48.042;10.088;2024-01-30T04:56:39;5.93;;;2.90;;
75165;SDS011;63747;48.042;10.088;2024-01-30T04:59:40;6.07;;;3.07;;
75165;SDS011;63747;48.042;10.088;2024-01-30T05:02:41;4.07;;;2.87;;
75165;SDS011;63747;48.042;10.088;2024-01-30T05:05:41;7.33;;;2.97;;
75165;SDS011;63747;48.042;10.088;2024-01-30T05:08:42;6.83;;;2.87;;
75165;SDS011;63747;48.042;10.088;2024-01-30T05:11:43;5.00;;;3.23;;
75165;SDS011;63747;48.042;10.088;2024-01-30T05:14:44;5.07;;;3.10;;
75165;SDS011;63747;48.042;10.088;2024-01-30T05:17:44;4.93;;;3.07;;
75165;SDS011;63747;48.042;10.088;2024-01-30T05:20:45;5.03;;;3.10;;
75165;SDS011;63747;48.042;10.088;2024-01-30T05:23:46;5.17;;;3.33;;
75165;SDS011;63747;48.042;10.088;2024-01-30T05:26:46;4.87;;;3.43;;
75165;SDS011;63747;48.042;10.088;2024-01-30T05:29:48;4.97;;;3.10;;
75165;SDS011;63747;48.042;10.088;2024-01-30T05:32:49;5.80;;;3.38;;
75165;SDS011;63747;48.042;10.088;2024-01-30T05:35:50;5.37;;;3.37;;
75165;SDS011;63747;48.042;10.088;2024-01-30T05:38:54;8.43;;;5.53;;
75165;SDS011;63747;48.042;10.088;2024-01-30T05:41:54;21.67;;;13.43;;
75165;SDS011;63747;48.042;10.088;2024-01-30T05:44:55;17.40;;;9.43;;
75165;SDS011;63747;48.042;10.088;2024-01-30T05:47:57;17.23;;;10.73;;
75165;SDS011;63747;48.042;10.088;2024-01-30T05:50:58;11.23;;;7.60;;
75165;SDS011;63747;48.042;10.088;2024-01-30T05:53:59;9.68;;;6.38;;
75165;SDS011;63747;48.042;10.088;2024-01-30T05:57:03;8.40;;;5.95;;
75165;SDS011;63747;48.042;10.088;2024-01-30T06:00:04;6.70;;;4.60;;
75165;SDS011;63747;48.042;10.088;2024-01-30T06:03:06;6.28;;;3.75;;
75165;SDS011;63747;48.042;10.088;2024-01-30T06:09:08;4.20;;;3.00;;
75165;SDS011;63747;48.042;10.088;2024-01-30T06:12:09;4.40;;;3.10;;
75165;SDS011;63747;48.042;10.088;2024-01-30T06:15:11;4.65;;;3.13;;
75165;SDS011;63747;48.042;10.088;2024-01-30T06:18:12;5.33;;;3.20;;
75165;SDS011;63747;48.042;10.088;2024-01-30T06:21:13;7.60;;;4.63;;
75165;SDS011;63747;48.042;10.088;2024-01-30T06:24:14;9.30;;;4.23;;
75165;SDS011;63747;48.042;10.088;2024-01-30T06:27:14;6.23;;;4.17;;
75165;SDS011;63747;48.042;10.088;2024-01-30T06:30:15;12.60;;;7.23;;
75165;SDS011;63747;48.042;10.088;2024-01-30T06:33:16;11.80;;;6.40;;
75165;SDS011;63747;48.042;10.088;2024-01-30T06:36:17;8.73;;;5.53;;
75165;SDS011;63747;48.042;10.088;2024-01-30T06:39:17;6.70;;;5.00;;
75165;SDS011;63747;48.042;10.088;2024-01-30T06:42:19;8.27;;;4.28;;
75165;SDS011;63747;48.042;10.088;2024-01-30T06:45:20;6.47;;;3.42;;
75165;SDS011;63747;48.042;10.088;2024-01-30T06:48:20;7.23;;;4.50;;
75165;SDS011;63747;48.042;10.088;2024-01-30T06:51:21;7.33;;;5.00;;
75165;SDS011;63747;48.042;10.088;2024-01-30T06:54:22;9.87;;;6.60;;
75165;SDS011;63747;48.042;10.088;2024-01-30T06:57:22;10.47;;;5.73;;
75165;SDS011;63747;48.042;10.088;2024-01-30T07:00:23;11.57;;;6.07;;
75165;SDS011;63747;48.042;10.088;2024-01-30T07:03:24;16.00;;;7.97;;
75165;SDS011;63747;48.042;10.088;2024-01-30T07:06:25;42.47;;;12.40;;
75165;SDS011;63747;48.042;10.088;2024-01-30T07:09:25;30.33;;;11.03;;
75165;SDS011;63747;48.042;10.088;2024-01-30T07:12:27;19.45;;;10.40;;
75165;SDS011;63747;48.042;10.088;2024-01-30T07:15:27;13.17;;;7.67;;
75165;SDS011;63747;48.042;10.088;2024-01-30T07:18:29;12.20;;;6.40;;
75165;SDS011;63747;48.042;10.088;2024-01-30T07:21:29;9.80;;;5.20;;
75165;SDS011;63747;48.042;10.088;2024-01-30T07:24:30;10.20;;;5.10;;
75165;SDS011;63747;48.042;10.088;2024-01-30T07:27:31;7.70;;;4.97;;
75165;SDS011;63747;48.042;10.088;2024-01-30T07:30:31;7.03;;;4.60;;
75165;SDS011;63747;48.042;10.088;2024-01-30T07:33:32;9.03;;;5.07;;
75165;SDS011;63747;48.042;10.088;2024-01-30T07:36:33;13.03;;;4.50;;
75165;SDS011;63747;48.042;10.088;2024-01-30T07:39:34;7.40;;;5.10;;
75165;SDS011;63747;48.042;10.088;2024-01-30T07:42:34;7.80;;;4.60;;
75165;SDS011;63747;48.042;10.088;2024-01-30T07:45:35;8.03;;;4.67;;
75165;SDS011;63747;48.042;10.088;2024-01-30T07:48:37;8.90;;;4.80;;
75165;SDS011;63747;48.042;10.088;2024-01-30T07:51:38;6.93;;;4.80;;
75165;SDS011;63747;48.042;10.088;2024-01-30T07:54:39;7.35;;;4.82;;
75165;SDS011;63747;48.042;10.088;2024-01-30T07:57:40;6.70;;;4.20;;
75165;SDS011;63747;48.042;10.088;2024-01-30T08:00:41;9.10;;;4.57;;
75165;SDS011;63747;48.042;10.088;2024-01-30T08:03:42;13.93;;;5.27;;
75165;SDS011;63747;48.042;10.088;2024-01-30T08:06:43;10.20;;;4.83;;
75165;SDS011;63747;48.042;10.088;2024-01-30T08:09:44;10.57;;;4.40;;
75165;SDS011;63747;48.042;10.088;2024-01-30T08:12:44;8.43;;;4.03;;
75165;SDS011;63747;48.042;10.088;2024-01-30T08:15:45;6.57;;;3.80;;
75165;SDS011;63747;48.042;10.088;2024-01-30T08:18:46;4.97;;;3.33;;
75165;SDS011;63747;48.042;10.088;2024-01-30T08:21:46;5.80;;;3.50;;
75165;SDS011;63747;48.042;10.088;2024-01-30T08:24:47;5.30;;;3.50;;
75165;SDS011;63747;48.042;10.088;2024-01-30T08:27:48;5.40;;;3.40;;
75165;SDS011;63747;48.042;10.088;2024-01-30T08:30:48;5.77;;;3.40;;
75165;SDS011;63747;48.042;10.088;2024-01-30T08:33:49;4.70;;;3.00;;
75165;SDS011;63747;48.042;10.088;2024-01-30T08:36:50;7.00;;;3.10;;
75165;SDS011;63747;48.042;10.088;2024-01-30T08:39:51;4.57;;;2.73;;
75165;SDS011;63747;48.042;10.088;2024-01-30T08:42:52;8.30;;;2.80;;
75165;SDS011;63747;48.042;10.088;2024-01-30T08:45:53;3.67;;;2.50;;
75165;SDS011;63747;48.042;10.088;2024-01-30T08:48:54;4.17;;;2.77;;
75165;SDS011;63747;48.042;10.088;2024-01-30T08:51:55;5.70;;;3.10;;
75165;SDS011;63747;48.042;10.088;2024-01-30T08:54:55;5.87;;;3.83;;
75165;SDS011;63747;48.042;10.088;2024-01-30T08:57:56;4.77;;;3.13;;
75165;SDS011;63747;48.042;10.088;2024-01-30T09:00:58;6.20;;;3.47;;
75165;SDS011;63747;48.042;10.088;2024-01-30T09:03:59;6.95;;;3.83;;
75165;SDS011;63747;48.042;10.088;2024-01-30T09:06:59;6.73;;;4.20;;
75165;SDS011;63747;48.042;10.088;2024-01-30T09:10:00;6.43;;;3.87;;
75165;SDS011;63747;48.042;10.088;2024-01-30T09:13:01;6.13;;;4.13;;
75165;SDS011;63747;48.042;10.088;2024-01-30T09:16:01;4.43;;;3.10;;
75165;SDS011;63747;48.042;10.088;2024-01-30T09:19:02;5.30;;;3.33;;
75165;SDS011;63747;48.042;10.088;2024-01-30T09:22:04;5.43;;;2.60;;
75165;SDS011;63747;48.042;10.088;2024-01-30T09:28:06;4.75;;;2.45;;
75165;SDS011;63747;48.042;10.088;2024-01-30T09:31:10;6.83;;;3.03;;
75165;SDS011;63747;48.042;10.088;2024-01-30T09:34:12;4.30;;;3.05;;
75165;SDS011;63747;48.042;10.088;2024-01-30T09:37:13;3.35;;;2.65;;
75165;SDS011;63747;48.042;10.088;2024-01-30T09:43:18;6.05;;;2.58;;
75165;SDS011;63747;48.042;10.088;2024-01-30T09:46:24;5.05;;;3.28;;
75165;SDS011;63747;48.042;10.088;2024-01-30T09:49:27;6.07;;;3.45;;
75165;SDS011;63747;48.042;10.088;2024-01-30T09:52:28;4.80;;;3.43;;
75165;SDS011;63747;48.042;10.088;2024-01-30T09:55:29;5.37;;;3.20;;
75165;SDS011;63747;48.042;10.088;2024-01-30T09:58:30;5.43;;;3.35;;
75165;SDS011;63747;48.042;10.088;2024-01-30T10:01:31;5.40;;;3.47;;
75165;SDS011;63747;48.042;10.088;2024-01-30T10:04:32;6.07;;;4.03;;
75165;SDS011;63747;48.042;10.088;2024-01-30T10:07:32;6.70;;;3.50;;
75165;SDS011;63747;48.042;10.088;2024-01-30T10:10:34;4.90;;;3.30;;
75165;SDS011;63747;48.042;10.088;2024-01-30T10:13:35;4.47;;;2.90;;
75165;SDS011;63747;48.042;10.088;2024-01-30T10:16:36;4.70;;;3.37;;
75165;SDS011;63747;48.042;10.088;2024-01-30T10:19:37;5.10;;;2.93;;
75165;SDS011;63747;48.042;10.088;2024-01-30T10:22:39;6.43;;;3.10;;
75165;SDS011;63747;48.042;10.088;2024-01-30T10:25:44;4.95;;;3.03;;
75165;SDS011;63747;48.042;10.088;2024-01-30T10:28:45;6.43;;;2.97;;
75165;SDS011;63747;48.042;10.088;2024-01-30T10:31:45;6.50;;;3.30;;
75165;SDS011;63747;48.042;10.088;2024-01-30T10:34:47;5.85;;;3.03;;
75165;SDS011;63747;48.042;10.088;2024-01-30T10:37:47;4.93;;;3.03;;
75165;SDS011;63747;48.042;10.088;2024-01-30T10:40:49;8.65;;;3.58;;
75165;SDS011;63747;48.042;10.088;2024-01-30T10:43:58;7.40;;;4.03;;
75165;SDS011;63747;48.042;10.088;2024-01-30T10:47:12;7.85;;;5.47;;
75165;SDS011;63747;48.042;10.088;2024-01-30T10:50:16;8.23;;;6.07;;
75165;SDS011;63747;48.042;10.088;2024-01-30T10:53:17;8.65;;;5.60;;
75165;SDS011;63747;48.042;10.088;2024-01-30T10:56:20;8.02;;;5.75;;
75165;SDS011;63747;48.042;10.088;2024-01-30T10:59:22;8.85;;;6.47;;
75165;SDS011;63747;48.042;10.088;2024-01-30T11:02:24;8.10;;;5.75;;
75165;SDS011;63747;48.042;10.088;2024-01-30T11:05:27;12.00;;;6.13;;
75165;SDS011;63747;48.042;10.088;2024-01-30T11:08:28;8.35;;;5.78;;
75165;SDS011;63747;48.042;10.088;2024-01-30T11:11:29;9.35;;;6.63;;
75165;SDS011;63747;48.042;10.088;2024-01-30T11:14:30;10.27;;;6.50;;
75165;SDS011;63747;48.042;10.088;2024-01-30T11:20:53;10.57;;;6.60;;
75165;SDS011;63747;48.042;10.088;2024-01-30T11:23:57;8.38;;;5.90;;
75165;SDS011;63747;48.042;10.088;2024-01-30T11:26:58;8.90;;;6.27;;
75165;SDS011;63747;48.042;10.088;2024-01-30T11:30:01;8.95;;;6.18;;
75165;SDS011;63747;48.042;10.088;2024-01-30T11:33:06;9.02;;;6.72;;
75165;SDS011;63747;48.042;10.088;2024-01-30T11:36:16;11.40;;;6.35;;
75165;SDS011;63747;48.042;10.088;2024-01-30T11:39:17;8.70;;;6.10;;
75165;SDS011;63747;48.042;10.088;2024-01-30T11:42:23;12.48;;;6.50;;
75165;SDS011;63747;48.042;10.088;2024-01-30T11:45:28;7.93;;;5.85;;
75165;SDS011;63747;48.042;10.088;2024-01-30T11:48:29;10.80;;;6.32;;
75165;SDS011;63747;48.042;10.088;2024-01-30T11:51:30;7.13;;;5.77;;
75165;SDS011;63747;48.042;10.088;2024-01-30T11:57:32;7.70;;;5.70;;
75165;SDS011;63747;48.042;10.088;2024-01-30T12:00:34;7.35;;;5.25;;
75165;SDS011;63747;48.042;10.088;2024-01-30T12:03:35;8.75;;;5.43;;
75165;SDS011;63747;48.042;10.088;2024-01-30T12:06:36;8.43;;;5.33;;
75165;SDS011;63747;48.042;10.088;2024-01-30T12:09:37;7.13;;;4.70;;
75165;SDS011;63747;48.042;10.088;2024-01-30T12:12:38;5.90;;;4.90;;
75165;SDS011;63747;48.042;10.088;2024-01-30T12:15:38;6.50;;;4.75;;
75165;SDS011;63747;48.042;10.088;2024-01-30T12:18:39;9.30;;;5.63;;
75165;SDS011;63747;48.042;10.088;2024-01-30T12:21:40;9.00;;;4.90;;
75165;SDS011;63747;48.042;10.088;2024-01-30T12:24:40;7.63;;;5.63;;
75165;SDS011;63747;48.042;10.088;2024-01-30T12:27:43;7.80;;;5.82;;
75165;SDS011;63747;48.042;10.088;2024-01-30T12:30:44;7.57;;;5.80;;
75165;SDS011;63747;48.042;10.088;2024-01-30T12:33:45;7.03;;;5.70;;
75165;SDS011;63747;48.042;10.088;2024-01-30T12:36:49;8.95;;;5.95;;
75165;SDS011;63747;48.042;10.088;2024-01-30T12:39:53;8.55;;;6.20;;
75165;SDS011;63747;48.042;10.088;2024-01-30T12:42:54;10.13;;;6.20;;
75165;SDS011;63747;48.042;10.088;2024-01-30T12:45:55;8.65;;;5.78;;
75165;SDS011;63747;48.042;10.088;2024-01-30T12:48:55;7.70;;;6.22;;
75165;SDS011;63747;48.042;10.088;2024-01-30T12:51:56;7.77;;;5.90;;
75165;SDS011;63747;48.042;10.088;2024-01-30T12:54:58;8.43;;;6.25;;
75165;SDS011;63747;48.042;10.088;2024-01-30T12:57:59;7.37;;;6.20;;
75165;SDS011;63747;48.042;10.088;2024-01-30T13:01:00;7.53;;;6.00;;
75165;SDS011;63747;48.042;10.088;2024-01-30T13:04:00;9.75;;;6.00;;
75165;SDS011;63747;48.042;10.088;2024-01-30T13:07:02;9.68;;;6.13;;
75165;SDS011;63747;48.042;10.088;2024-01-30T13:10:03;7.25;;;5.97;;
75165;SDS011;63747;48.042;10.088;2024-01-30T13:13:04;8.82;;;6.28;;
75165;SDS011;63747;48.042;10.088;2024-01-30T13:16:04;11.57;;;6.63;;
75165;SDS011;63747;48.042;10.088;2024-01-30T13:19:05;7.78;;;6.05;;
75165;SDS011;63747;48.042;10.088;2024-01-30T13:22:06;8.95;;;6.38;;
75165;SDS011;63747;48.042;10.088;2024-01-30T13:25:07;6.57;;;5.47;;
75165;SDS011;63747;48.042;10.088;2024-01-30T13:28:08;11.63;;;5.83;;
75165;SDS011;63747;48.042;10.088;2024-01-30T13:31:08;9.77;;;5.87;;
75165;SDS011;63747;48.042;10.088;2024-01-30T13:34:09;9.88;;;5.30;;
75165;SDS011;63747;48.042;10.088;2024-01-30T13:37:10;9.57;;;5.70;;
75165;SDS011;63747;48.042;10.088;2024-01-30T13:40:10;8.57;;;6.20;;
75165;SDS011;63747;48.042;10.088;2024-01-30T13:43:12;8.13;;;5.65;;
75165;SDS011;63747;48.042;10.088;2024-01-30T13:46:13;8.77;;;5.88;;
75165;SDS011;63747;48.042;10.088;2024-01-30T13:49:14;8.77;;;5.53;;
75165;SDS011;63747;48.042;10.088;2024-01-30T13:52:14;10.53;;;6.10;;
75165;SDS011;63747;48.042;10.088;2024-01-30T13:55:15;10.02;;;6.40;;
75165;SDS011;63747;48.042;10.088;2024-01-30T13:58:16;9.17;;;6.10;;
75165;SDS011;63747;48.042;10.088;2024-01-30T14:01:17;9.33;;;5.97;;
75165;SDS011;63747;48.042;10.088;2024-01-30T14:04:17;11.85;;;5.93;;
75165;SDS011;63747;48.042;10.088;2024-01-30T14:07:18;6.67;;;5.33;;
75165;SDS011;63747;48.042;10.088;2024-01-30T14:10:19;8.55;;;5.75;;
75165;SDS011;63747;48.042;10.088;2024-01-30T14:13:20;8.68;;;5.53;;
75165;SDS011;63747;48.042;10.088;2024-01-30T14:16:22;6.20;;;4.82;;
75165;SDS011;63747;48.042;10.088;2024-01-30T14:19:24;8.93;;;5.45;;
75165;SDS011;63747;48.042;10.088;2024-01-30T14:22:24;6.80;;;5.10;;
75165;SDS011;63747;48.042;10.088;2024-01-30T14:25:25;10.10;;;5.23;;
75165;SDS011;63747;48.042;10.088;2024-01-30T14:28:26;9.40;;;4.83;;
75165;SDS011;63747;48.042;10.088;2024-01-30T14:31:27;5.77;;;4.83;;
75165;SDS011;63747;48.042;10.088;2024-01-30T14:34:27;7.35;;;5.32;;
75165;SDS011;63747;48.042;10.088;2024-01-30T14:37:28;6.10;;;4.17;;
75165;SDS011;63747;48.042;10.088;2024-01-30T14:40:30;7.10;;;5.28;;
75165;SDS011;63747;48.042;10.088;2024-01-30T14:43:31;6.97;;;4.70;;
75165;SDS011;63747;48.042;10.088;2024-01-30T14:46:32;8.30;;;4.78;;
75165;SDS011;63747;48.042;10.088;2024-01-30T14:49:33;6.07;;;4.03;;
75165;SDS011;63747;48.042;10.088;2024-01-30T14:55:35;5.97;;;4.13;;
75165;SDS011;63747;48.042;10.088;2024-01-30T14:58:36;7.73;;;5.70;;
75165;SDS011;63747;48.042;10.088;2024-01-30T15:04:38;7.47;;;5.03;;
75165;SDS011;63747;48.042;10.088;2024-01-30T15:07:38;5.33;;;4.30;;
75165;SDS011;63747;48.042;10.088;2024-01-30T15:10:39;6.97;;;4.28;;
75165;SDS011;63747;48.042;10.088;2024-01-30T15:13:40;5.88;;;3.80;;
75165;SDS011;63747;48.042;10.088;2024-01-30T15:16:41;7.13;;;4.10;;
75165;SDS011;63747;48.042;10.088;2024-01-30T15:19:42;5.40;;;3.70;;
75165;SDS011;63747;48.042;10.088;2024-01-30T15:22:43;5.28;;;3.97;;
75165;SDS011;63747;48.042;10.088;2024-01-30T15:25:44;6.20;;;4.70;;
75165;SDS011;63747;48.042;10.088;2024-01-30T15:28:45;5.90;;;4.10;;
75165;SDS011;63747;48.042;10.088;2024-01-30T15:31:46;7.65;;;4.38;;
75165;SDS011;63747;48.042;10.088;2024-01-30T15:34:47;7.30;;;4.30;;
75165;SDS011;63747;48.042;10.088;2024-01-30T15:37:48;6.33;;;5.03;;
75165;SDS011;63747;48.042;10.088;2024-01-30T15:40:49;7.50;;;4.90;;
75165;SDS011;63747;48.042;10.088;2024-01-30T15:43:49;6.53;;;4.65;;
75165;SDS011;63747;48.042;10.088;2024-01-30T15:46:51;8.60;;;5.80;;
75165;SDS011;63747;48.042;10.088;2024-01-30T15:49:52;5.22;;;4.20;;
75165;SDS011;63747;48.042;10.088;2024-01-30T15:52:52;8.00;;;4.13;;
75165;SDS011;63747;48.042;10.088;2024-01-30T15:55:53;8.40;;;5.00;;
75165;SDS011;63747;48.042;10.088;2024-01-30T15:58:54;7.00;;;4.53;;
75165;SDS011;63747;48.042;10.088;2024-01-30T16:01:54;10.20;;;5.73;;
75165;SDS011;63747;48.042;10.088;2024-01-30T16:04:55;13.37;;;7.30;;
75165;SDS011;63747;48.042;10.088;2024-01-30T16:07:56;10.38;;;6.50;;
75165;SDS011;63747;48.042;10.088;2024-01-30T16:10:57;11.50;;;6.33;;
75165;SDS011;63747;48.042;10.088;2024-01-30T16:13:58;8.83;;;5.00;;
75165;SDS011;63747;48.042;10.088;2024-01-30T16:16:58;7.30;;;5.07;;
75165;SDS011;63747;48.042;10.088;2024-01-30T16:19:59;8.50;;;5.45;;
75165;SDS011;63747;48.042;10.088;2024-01-30T16:23:00;6.07;;;4.50;;
75165;SDS011;63747;48.042;10.088;2024-01-30T16:26:01;4.60;;;3.83;;
75165;SDS011;63747;48.042;10.088;2024-01-30T16:29:01;7.50;;;3.93;;
75165;SDS011;63747;48.042;10.088;2024-01-30T16:32:02;6.77;;;4.17;;
75165;SDS011;63747;48.042;10.088;2024-01-30T16:35:03;7.65;;;4.65;;
75165;SDS011;63747;48.042;10.088;2024-01-30T16:38:04;13.55;;;9.30;;
75165;SDS011;63747;48.042;10.088;2024-01-30T16:41:05;18.60;;;12.57;;
75165;SDS011;63747;48.042;10.088;2024-01-30T16:44:06;14.33;;;10.07;;
75165;SDS011;63747;48.042;10.088;2024-01-30T16:47:06;12.53;;;8.57;;
75165;SDS011;63747;48.042;10.088;2024-01-30T16:50:07;13.10;;;8.30;;
75165;SDS011;63747;48.042;10.088;2024-01-30T16:53:08;12.10;;;7.13;;
75165;SDS011;63747;48.042;10.088;2024-01-30T16:56:08;7.80;;;5.83;;
75165;SDS011;63747;48.042;10.088;2024-01-30T16:59:09;9.88;;;6.47;;
75165;SDS011;63747;48.042;10.088;2024-01-30T17:02:10;7.83;;;5.93;;
75165;SDS011;63747;48.042;10.088;2024-01-30T17:05:11;18.25;;;10.73;;
75165;SDS011;63747;48.042;10.088;2024-01-30T17:08:12;18.90;;;12.77;;
75165;SDS011;63747;48.042;10.088;2024-01-30T17:11:13;23.38;;;15.35;;
75165;SDS011;63747;48.042;10.088;2024-01-30T17:14:13;18.17;;;11.82;;
75165;SDS011;63747;48.042;10.088;2024-01-30T17:17:16;14.35;;;8.23;;
75165;SDS011;63747;48.042;10.088;2024-01-30T17:20:17;10.60;;;7.80;;
75165;SDS011;63747;48.042;10.088;2024-01-30T17:23:18;12.20;;;8.87;;
75165;SDS011;63747;48.042;10.088;2024-01-30T17:26:20;16.58;;;8.88;;
75165;SDS011;63747;48.042;10.088;2024-01-30T17:29:21;14.63;;;9.18;;
75165;SDS011;63747;48.042;10.088;2024-01-30T17:32:22;18.30;;;10.23;;
75165;SDS011;63747;48.042;10.088;2024-01-30T17:35:25;15.48;;;9.55;;
75165;SDS011;63747;48.042;10.088;2024-01-30T17:38:26;18.90;;;10.87;;
75165;SDS011;63747;48.042;10.088;2024-01-30T17:41:27;10.15;;;6.97;;
75165;SDS011;63747;48.042;10.088;2024-01-30T17:44:27;8.63;;;6.80;;
75165;SDS011;63747;48.042;10.088;2024-01-30T17:47:28;8.37;;;6.40;;
75165;SDS011;63747;48.042;10.088;2024-01-30T17:50:29;9.20;;;6.57;;
75165;SDS011;63747;48.042;10.088;2024-01-30T17:53:29;6.93;;;5.53;;
75165;SDS011;63747;48.042;10.088;2024-01-30T17:56:30;9.53;;;7.30;;
75165;SDS011;63747;48.042;10.088;2024-01-30T17:59:31;8.23;;;6.57;;
75165;SDS011;63747;48.042;10.088;2024-01-30T18:02:32;9.93;;;6.60;;
75165;SDS011;63747;48.042;10.088;2024-01-30T18:05:32;9.43;;;7.35;;
75165;SDS011;63747;48.042;10.088;2024-01-30T18:08:33;9.63;;;7.47;;
75165;SDS011;63747;48.042;10.088;2024-01-30T18:11:34;10.80;;;7.17;;
75165;SDS011;63747;48.042;10.088;2024-01-30T18:14:34;10.03;;;7.47;;